Historyczne dane pomiarowe

Dodano dane terminowe – wersja testowa.

Dane z okresu 1951-2019

Wersja bazy: 1.34 [2019-03-16, lista zmian], aktualizacja planowana na 2019-04-15

Dane meteo z obszaru Polski uzyskane na podstawie danych udostępnionych przez Instytut Meteorologii i Gospodarki Wodnej – Państwowy Instytut Badawczy.

 

Wybierz Datę:    

       

TemperaturaWilgotnośćWiatrCiśnienieOpadyŚniegCzas trwania zjawisk
 Stacja t tx tn tng RH VA  wxwx mslp ppp RRR   cm mm wxwxwxwxwxwxwx
2019-06-06 19.0 24.4 12.0--- 1.3 1.3---- 0.0------------
2019-06-05 18.6 25.5 13.0--- 3.0 1.3---- 0.0------------
2019-06-04 18.0 24.5 11.1--- 3.0 0.0---- 0.8------------
2019-06-03 17.8 25.2 8.6--- 1.0 1.7---- 0.0------------
2019-06-02 17.2 24.5 11.2--- 3.0 0.7---- 0.0------------
2019-06-01 14.5 23.0 5.5--- 5.0 0.7---- 0.2------------
2019-05-31 12.9 19.0 7.6--- 4.7 0.7---- 0.0------------
2019-05-30 9.0 10.5 8.0--- 8.0 2.3---- 22.1------------
2019-05-29 12.0 16.0 9.0--- 8.0 1.7---- 5.6------------
2019-05-28 17.5 22.0 13.4--- 4.3 1.7---- 2.0------------
2019-05-27 16.1 23.7 7.8--- 4.3 1.0---- 0.0------------
2019-05-26 15.1 23.0 7.4--- 2.7 1.0---- 0.0------------
2019-05-25 14.0 20.9 9.3--- 3.7 1.7---- 0.0------------
2019-05-24 11.0 12.7 9.3--- 8.0 2.0---- 1.7------------
2019-05-23 10.9 12.6 9.9--- 8.0 3.3---- 36.8------------
2019-05-22 13.0 16.6 10.7--- 8.0 0.7---- 22.0------------
2019-05-21 12.3 16.7 8.2--- 8.0 0.7---- 14.4------------
2019-05-20 16.1 21.0 10.4--- 6.0 1.7---- 0.0------------
2019-05-19 15.5 23.9 6.2--- 3.0 0.3---- 5.2------------
2019-05-18 14.9 23.5 7.7--- 3.7 1.0---- 0.0------------
2019-05-17 14.7 21.3 9.2--- 6.0 0.7---- 0.0------------
2019-05-16 12.4 18.5 7.5--- 6.3 1.0---- 0.0------------
2019-05-15 6.4 8.5 3.2--- 8.0 0.3---- 8.0------------
2019-05-14 3.2 6.7 0.8--- 8.0 1.7---- 17.1------------
2019-05-13 7.7 10.6 6.3--- 8.0 2.3---- 7.7------------
2019-05-12 12.2 20.6 6.5--- 7.7 2.0---- 4.6------------
2019-05-11 13.2 19.7 7.2--- 3.0 1.0---- 0.0------------
2019-05-10 11.2 16.8 7.4--- 4.7 2.0---- 3.5------------
2019-05-09 8.7 10.6 7.5--- 8.0 2.3---- 4.1------------
2019-05-08 7.3 14.5 -0.7--- 1.7 1.7---- 0.0------------
2019-05-07 6.2 10.2 1.7--- 7.7 3.0---- 0.0------------
2019-05-06 3.7 6.0 2.2--- 8.0 2.3---- 2.3------------
2019-05-05 5.2 9.7 2.9--- 8.0 3.3---- 10.7------------
2019-05-04 8.2 14.3 3.0--- 6.7 0.7---- 1.0------------
2019-05-03 8.5 13.7 4.7--- 8.0 0.7---- 9.1------------
2019-05-02 12.2 19.0 6.4--- 3.7 1.7---- 0.0------------
2019-05-01 10.9 15.7 7.4--- 4.3 1.3---- 2.6------------
2019-04-30 10.0 11.3 8.8--- 8.0 1.0---- 22.0------------
2019-04-29 9.2 12.0 6.5--- 8.0 0.7---- 0.7------------
2019-04-28 8.7 10.6 7.5--- 8.0 0.7---- 25.4------------
2019-04-27 13.8 22.5 9.4--- 8.0 1.3---- 27.6------------
2019-04-26 16.9 27.1 5.4--- 2.3 2.0---- 0.1------------
2019-04-25 17.6 23.7 11.8--- 1.7 3.0---- 0.0------------
2019-04-24 11.9 14.7 9.3--- 5.3 4.3---- 2.2------------
2019-04-23 9.9 15.0 4.7--- 7.0----- 0.0------------
2019-04-22 7.7 15.0 2.5--- 5.3 1.3---- 0.7------------
2019-04-21 8.0 17.0 -0.7--- 2.7 1.3---- 0.0------------
2019-04-20 9.1 18.8 -1.6--- 2.7 2.3---- 0.0------------
2019-04-19 7.7 17.8 -0.8--- 0.0 2.0---- 0.0------------
2019-04-18 7.4 16.0 0.4--- 2.7 1.3---- 0.0------------
2019-04-17 6.5 10.5 3.3--- 7.7 0.3---- 0.4------------
2019-04-16 3.7 13.0 -5.7--- 0.0 1.0---- 0.7------------
2019-04-15 3.0 11.0 -3.1--- 0.0 1.0---- 0.0------------
2019-04-14 6.1 13.0 0.9--- 7.0 1.7---- 0.0------------
2019-04-13 2.2 3.5 0.8--- 8.0 2.0---- 2.0------------
2019-04-12 1.4 2.4 0.7--- 8.0 1.0---- 6.4------------
2019-04-11 3.7 6.7 2.2--- 8.0 3.7---- 3.0------------
2019-04-10 7.1 12.5 4.3--- 7.7 4.3---- 0.0------------
2019-04-09 8.9 16.8 1.0--- 6.3 2.0---- 0.0------------
2019-04-08 9.4 18.2 1.0--- 6.0 2.3---- 0.0------------
199.4 ms

 

Źródłem pochodzenia danych jest Instytut Meteorologii i Gospodarki Wodnej – Państwowy Instytut Badawczy. Dane Instytutu Meteorologii i Gospodarki Wodnej – Państwowego Instytutu Badawczego zostały przetworzone.

Dane źródłowe można odnaleźć na stronie https://dane.imgw.pl